Archival Weather

Chicago O'Hare International

Chicago, Illinois (KORD)

Report from: Monday, December 12, 2022 10:51 AM CST
Current time: Friday, June 21, 2024 1:58 AM CDT

Current weather – Weather history – Daily summaries
Weather forecast

Temperature5.0°C (41.0°F)
Wind chill2.1°C (35.8°F)
Dew point1.1°C (34.0°F)
Winds 7 kts (3.6 m/s, 8.1 mph) East (90°)
Visibility10 mi. (16.1 km)
Clouds Few clouds 1,500 ft. (457 m)
Few clouds 2,600 ft. (792 m)
Ceiling: Overcast 3,400 ft. (1,036 m)
Altimeter30.30 in.Hg (1026 mB)
PrecipitiationTrace
Precip. events Rain ended 4:19 PM
Relative humidity76 %
Density altitude-1,555 ft. (-474 m)
Sea-level pressure102.6 kPa (1026 mB, 30.31 in.Hg)
Remarks Automated weather observing station with precipitation discriminator
Flight conditions Visual Meteorological Conditions
Raw dataKORD 121651Z 09007KT 10SM FEW015 FEW026 OVC034 05/01 A3030 RMK AO2 RAE19 SLP264 P0000 T00500011
An error has occurred. This application may no longer respond until reloaded. Reload 🗙